createdAt,value
2022-10-06T00:00:37.950Z,14.77
2022-10-06T00:03:04.752Z,14.30
2022-10-06T00:05:31.436Z,14.95
2022-10-06T00:07:58.564Z,16.10
2022-10-06T00:10:25.249Z,16.02
2022-10-06T00:12:52.679Z,16.27
2022-10-06T00:15:22.451Z,16.77
2022-10-06T00:17:49.250Z,16.17
2022-10-06T00:20:16.591Z,15.35
2022-10-06T00:22:46.012Z,17.05
2022-10-06T00:25:15.467Z,16.48
2022-10-06T00:27:44.496Z,16.25
2022-10-06T00:30:14.323Z,17.67
2022-10-06T00:32:41.051Z,15.65
2022-10-06T00:35:08.344Z,16.10
2022-10-06T00:37:37.032Z,15.15
2022-10-06T00:40:09.717Z,16.10
2022-10-06T00:42:49.076Z,16.83
2022-10-06T00:45:16.489Z,16.27
2022-10-06T00:47:43.179Z,17.25
2022-10-06T00:50:12.410Z,16.67
2022-10-06T00:52:40.410Z,16.98
2022-10-06T00:55:10.187Z,16.15
2022-10-06T00:57:39.615Z,15.80
2022-10-06T01:00:07.773Z,13.93
2022-10-06T01:02:57.307Z,13.55
2022-10-06T01:05:31.620Z,15.05
2022-10-06T01:07:58.739Z,15.60
2022-10-06T01:10:25.481Z,15.02
2022-10-06T01:12:52.196Z,16.20
2022-10-06T01:15:21.532Z,14.40
2022-10-06T01:17:51.434Z,14.43
2022-10-06T01:20:20.060Z,13.40
2022-10-06T01:22:55.555Z,14.27
2022-10-06T01:25:22.631Z,12.73
2022-10-06T01:27:53.768Z,14.95
2022-10-06T01:30:39.464Z,16.27
2022-10-06T01:33:06.130Z,15.57
2022-10-06T01:35:32.743Z,15.60
2022-10-06T01:37:59.645Z,14.82
2022-10-06T01:40:29.102Z,14.63
2022-10-06T01:42:56.563Z,13.38
2022-10-06T01:45:23.376Z,14.50
2022-10-06T01:47:50.008Z,15.02
2022-10-06T01:50:17.147Z,15.43
2022-10-06T01:52:43.759Z,14.52
2022-10-06T01:55:10.436Z,16.55
2022-10-06T01:57:43.799Z,17.38
2022-10-06T02:00:11.781Z,15.77
2022-10-06T02:02:38.379Z,15.30
2022-10-06T02:05:06.022Z,14.00
2022-10-06T02:07:34.442Z,13.60
2022-10-06T02:10:01.096Z,14.23
2022-10-06T02:12:27.754Z,15.15
2022-10-06T02:14:54.573Z,16.23
2022-10-06T02:17:21.642Z,16.80
2022-10-06T02:19:48.260Z,16.67
2022-10-06T02:22:14.920Z,16.25
2022-10-06T02:24:41.523Z,16.60
2022-10-06T02:27:08.716Z,17.27
2022-10-06T02:29:35.313Z,16.13
2022-10-06T02:32:01.914Z,14.07
2022-10-06T02:34:28.940Z,15.13
2022-10-06T02:36:55.519Z,15.32
2022-10-06T02:39:22.133Z,14.20
2022-10-06T02:41:48.776Z,17.13
2022-10-06T02:44:16.084Z,17.70
2022-10-06T02:46:42.745Z,20.35
2022-10-06T02:49:09.382Z,20.73
2022-10-06T02:51:36.018Z,22.38
2022-10-06T02:54:02.610Z,22.15
2022-10-06T02:56:29.276Z,20.25
2022-10-06T02:58:55.916Z,18.00
2022-10-06T03:01:27.958Z,15.82
2022-10-06T03:03:54.966Z,16.17
2022-10-06T03:06:24.547Z,16.23
2022-10-06T03:08:58.713Z,15.50
2022-10-06T03:11:31.152Z,19.10
2022-10-06T03:13:58.500Z,20.50
2022-10-06T03:16:31.977Z,19.88
2022-10-06T03:18:59.471Z,18.00
2022-10-06T03:21:31.036Z,20.10
2022-10-06T03:23:58.661Z,19.85
2022-10-06T03:26:28.459Z,19.85
2022-10-06T03:28:56.260Z,20.75
2022-10-06T03:31:23.986Z,20.73
2022-10-06T03:33:51.777Z,20.75
2022-10-06T03:36:21.141Z,22.30
2022-10-06T03:38:47.919Z,23.30
2022-10-06T03:41:19.313Z,21.48
2022-10-06T03:43:48.353Z,20.67
2022-10-06T03:46:18.573Z,26.40
2022-10-06T03:48:46.431Z,20.42
2022-10-06T03:51:23.359Z,17.63
2022-10-06T03:53:51.823Z,16.48
2022-10-06T03:56:29.892Z,19.20
2022-10-06T03:59:02.117Z,19.60
2022-10-06T04:01:40.376Z,22.17
2022-10-06T04:04:07.743Z,22.63
2022-10-06T04:06:36.972Z,22.63
2022-10-06T04:09:05.604Z,28.52
2022-10-06T04:11:35.298Z,25.17
2022-10-06T04:14:04.954Z,25.38
2022-10-06T04:16:35.821Z,31.75
2022-10-06T04:19:05.118Z,23.08
2022-10-06T04:21:36.710Z,24.08
2022-10-06T04:24:04.689Z,25.40
2022-10-06T04:26:35.370Z,23.50
2022-10-06T04:29:02.128Z,24.65
2022-10-06T04:31:31.842Z,22.17
2022-10-06T04:34:00.424Z,21.00
2022-10-06T04:36:33.308Z,20.58
2022-10-06T04:39:03.182Z,21.00
2022-10-06T04:41:36.507Z,20.42
2022-10-06T04:44:04.901Z,20.85
2022-10-06T04:46:48.239Z,22.30
2022-10-06T04:49:19.878Z,21.95
2022-10-06T04:51:49.080Z,20.83
2022-10-06T04:54:16.053Z,19.60
2022-10-06T04:56:42.723Z,20.35
2022-10-06T04:59:09.353Z,21.33
2022-10-06T05:01:37.764Z,23.58
2022-10-06T05:04:06.136Z,23.77
2022-10-06T05:06:35.828Z,28.58
2022-10-06T05:09:06.434Z,29.20
2022-10-06T05:11:33.485Z,28.08
2022-10-06T05:14:00.172Z,27.08
2022-10-06T05:16:29.023Z,26.88
2022-10-06T05:18:56.081Z,24.67
2022-10-06T05:21:25.810Z,27.27
2022-10-06T05:23:52.438Z,25.52
2022-10-06T05:26:22.258Z,27.80
2022-10-06T05:28:49.470Z,27.25
2022-10-06T05:31:17.717Z,27.45
2022-10-06T05:33:44.790Z,26.70
2022-10-06T05:36:23.764Z,27.80
2022-10-06T05:38:50.523Z,26.52
2022-10-06T05:41:19.227Z,26.52
2022-10-06T05:43:46.483Z,27.05
2022-10-06T05:46:23.866Z,24.80
2022-10-06T05:48:52.577Z,24.85
2022-10-06T05:51:20.615Z,24.80
2022-10-06T05:53:48.580Z,28.73
2022-10-06T05:56:21.085Z,28.75
2022-10-06T05:58:50.316Z,24.02
2022-10-06T06:01:27.647Z,24.05
2022-10-06T06:04:03.338Z,22.50
2022-10-06T06:06:35.671Z,23.38
2022-10-06T06:09:07.247Z,25.25
2022-10-06T06:11:35.704Z,22.92
2022-10-06T06:14:07.372Z,23.58
2022-10-06T06:16:35.666Z,22.40
2022-10-06T06:19:03.058Z,22.60
2022-10-06T06:21:30.037Z,21.83
2022-10-06T06:23:57.087Z,20.70
2022-10-06T06:26:26.279Z,19.92
2022-10-06T06:28:54.975Z,19.38
2022-10-06T06:31:26.671Z,19.75
2022-10-06T06:33:58.621Z,17.58
2022-10-06T06:36:41.123Z,16.58
2022-10-06T06:39:13.520Z,16.25
2022-10-06T06:41:46.104Z,16.30
2022-10-06T06:44:14.034Z,15.80
2022-10-06T06:46:43.477Z,14.68
2022-10-06T06:49:11.987Z,15.70
2022-10-06T06:51:41.107Z,15.48
2022-10-06T06:54:09.323Z,18.55
2022-10-06T06:56:36.798Z,15.85
2022-10-06T06:59:12.053Z,16.90
2022-10-06T07:01:48.837Z,14.43
2022-10-06T07:04:16.966Z,13.68
2022-10-06T07:06:57.109Z,14.80
2022-10-06T07:09:27.191Z,15.00
2022-10-06T07:14:24.191Z,14.27
2022-10-06T07:17:09.549Z,13.68
2022-10-06T07:19:51.542Z,13.35
2022-10-06T07:22:39.617Z,13.80
2022-10-06T07:25:32.996Z,13.55
2022-10-06T07:27:59.650Z,13.52
2022-10-06T07:30:28.487Z,14.13
2022-10-06T07:32:55.336Z,13.25
2022-10-06T07:35:23.469Z,13.40
2022-10-06T07:37:51.519Z,12.68
2022-10-06T07:40:18.621Z,13.05
2022-10-06T07:42:48.367Z,13.27
2022-10-06T07:48:05.864Z,14.77
2022-10-06T07:50:32.847Z,19.20
2022-10-06T07:53:04.885Z,29.20
2022-10-06T07:55:32.151Z,22.02
2022-10-06T07:57:58.793Z,21.70
2022-10-06T08:00:27.233Z,20.33
2022-10-06T08:02:54.904Z,13.80
2022-10-06T08:05:21.733Z,13.15
2022-10-06T08:07:48.444Z,12.40
2022-10-06T08:10:17.696Z,12.43
2022-10-06T08:12:44.337Z,12.02
2022-10-06T08:15:12.981Z,13.27
2022-10-06T08:17:40.459Z,13.88
2022-10-06T08:20:09.584Z,18.58
2022-10-06T08:22:38.782Z,15.50
2022-10-06T08:25:07.270Z,12.90
2022-10-06T08:27:35.352Z,11.85
2022-10-06T08:30:03.568Z,11.32
2022-10-06T08:32:30.238Z,11.02
2022-10-06T08:34:57.432Z,11.20
2022-10-06T08:37:26.810Z,11.68
2022-10-06T08:39:54.956Z,11.88
2022-10-06T08:42:32.336Z,11.05
2022-10-06T08:45:03.197Z,11.43
2022-10-06T08:47:34.977Z,11.48
2022-10-06T08:50:06.603Z,11.98
2022-10-06T08:52:48.553Z,11.45
2022-10-06T08:55:30.672Z,10.48
2022-10-06T08:57:57.259Z,11.43
2022-10-06T09:00:24.057Z,10.02
2022-10-06T09:02:51.086Z,11.40
2022-10-06T09:05:26.416Z,11.85
2022-10-06T09:08:08.212Z,13.48
2022-10-06T09:10:53.630Z,14.77
2022-10-06T09:13:28.664Z,11.90
2022-10-06T09:16:00.264Z,10.82
2022-10-06T09:19:07.190Z,9.82
2022-10-06T09:22:04.653Z,9.75
2022-10-06T09:24:37.089Z,9.48
2022-10-06T09:27:18.451Z,9.77
2022-10-06T09:29:48.761Z,11.05
2022-10-06T09:32:20.212Z,10.52
2022-10-06T09:34:55.989Z,9.70
2022-10-06T09:37:23.542Z,9.95
2022-10-06T09:39:51.824Z,9.25
2022-10-06T09:42:29.734Z,9.35
2022-10-06T09:45:23.813Z,9.88
2022-10-06T09:47:50.560Z,8.38
2022-10-06T09:50:22.950Z,8.13
2022-10-06T09:52:49.496Z,8.55
2022-10-06T09:55:19.332Z,7.20
2022-10-06T09:57:54.210Z,7.80
2022-10-06T10:00:34.857Z,8.20
2022-10-06T10:03:13.367Z,7.60
2022-10-06T10:05:48.359Z,8.10
2022-10-06T10:08:23.582Z,8.20
2022-10-06T10:11:30.206Z,8.55
2022-10-06T10:14:00.441Z,8.68
2022-10-06T10:16:35.877Z,6.47
2022-10-06T10:19:05.716Z,6.70
2022-10-06T10:21:35.205Z,7.72
2022-10-06T10:24:06.684Z,6.95
2022-10-06T10:26:39.678Z,7.10
2022-10-06T10:29:11.144Z,8.05
2022-10-06T10:32:07.045Z,5.57
2022-10-06T10:34:47.644Z,5.10
2022-10-06T10:37:45.273Z,5.00
2022-10-06T10:40:27.041Z,5.10
2022-10-06T10:43:11.746Z,4.72
2022-10-06T10:45:59.679Z,4.95
2022-10-06T10:48:36.798Z,4.97
2022-10-06T10:51:23.590Z,5.13
2022-10-06T10:53:54.966Z,4.97
2022-10-06T10:56:26.248Z,4.68
2022-10-06T10:58:56.390Z,4.40
2022-10-06T11:01:41.734Z,5.22
2022-10-06T11:04:12.840Z,4.80
2022-10-06T11:07:00.898Z,4.68
2022-10-06T11:09:40.731Z,4.15
2022-10-06T11:12:19.477Z,4.47
2022-10-06T11:15:02.682Z,4.17
2022-10-06T11:17:46.813Z,4.57
2022-10-06T11:20:13.382Z,4.20
2022-10-06T11:23:03.006Z,3.80
2022-10-06T11:28:14.683Z,4.10
2022-10-06T11:30:51.385Z,4.20
2022-10-06T11:33:25.232Z,4.85
2022-10-06T11:35:52.335Z,4.70
2022-10-06T11:38:21.550Z,4.53
2022-10-06T11:41:10.540Z,4.22
2022-10-06T11:43:52.521Z,4.20
2022-10-06T11:46:35.596Z,4.30
2022-10-06T11:49:30.362Z,4.35
2022-10-06T11:52:17.212Z,4.53
2022-10-06T11:54:43.756Z,4.63
2022-10-06T11:57:25.153Z,4.75
2022-10-06T11:59:57.055Z,4.43
2022-10-06T12:02:37.420Z,4.60
2022-10-06T12:05:36.348Z,4.30
2022-10-06T12:07:56.943Z,4.32
2022-10-06T12:10:29.276Z,3.50
2022-10-06T12:13:50.489Z,5.13
2022-10-06T12:19:50.613Z,3.60
2022-10-06T12:22:22.540Z,4.10
2022-10-06T12:24:58.578Z,3.88
2022-10-06T12:27:28.433Z,3.33
2022-10-06T12:32:52.486Z,3.40
2022-10-06T12:35:27.320Z,3.80
2022-10-06T12:37:55.375Z,3.50
2022-10-06T12:40:49.475Z,3.28
2022-10-06T12:43:18.889Z,3.35
2022-10-06T12:45:55.070Z,3.20
2022-10-06T12:48:50.190Z,3.30
2022-10-06T12:51:39.945Z,3.30
2022-10-06T12:54:28.059Z,3.50
2022-10-06T12:57:00.538Z,3.58
2022-10-06T12:59:31.914Z,3.35
2022-10-06T13:02:01.889Z,3.30
2022-10-06T13:04:44.357Z,3.20
2022-10-06T13:07:18.587Z,3.35
2022-10-06T13:09:47.341Z,3.25
2022-10-06T13:12:32.445Z,3.40
2022-10-06T13:15:13.738Z,3.17
2022-10-06T13:18:13.219Z,3.72
2022-10-06T13:23:31.000Z,3.38
2022-10-06T13:26:02.479Z,3.50
2022-10-06T13:28:44.343Z,3.40
2022-10-06T13:31:31.474Z,3.53
2022-10-06T13:34:05.936Z,3.72
2022-10-06T13:36:38.708Z,3.40
2022-10-06T13:39:07.150Z,3.60
2022-10-06T13:41:43.861Z,4.00
2022-10-06T13:44:17.482Z,4.03
2022-10-06T13:46:51.968Z,3.95
2022-10-06T13:49:24.801Z,3.67
2022-10-06T13:51:53.896Z,4.20
2022-10-06T13:54:40.435Z,4.90
2022-10-06T13:57:43.368Z,3.80
2022-10-06T14:00:25.066Z,3.70
2022-10-06T14:03:07.644Z,3.72
2022-10-06T14:05:38.350Z,3.78
2022-10-06T14:08:10.948Z,3.85
2022-10-06T14:10:40.625Z,3.63
2022-10-06T14:13:31.263Z,3.55
2022-10-06T14:16:01.684Z,4.05
2022-10-06T14:18:43.772Z,3.78
2022-10-06T14:21:18.211Z,3.72
2022-10-06T14:23:50.481Z,4.03
2022-10-06T14:26:19.585Z,3.88
2022-10-06T14:28:49.502Z,3.80
2022-10-06T14:31:16.211Z,3.55
2022-10-06T14:33:43.230Z,3.70
2022-10-06T14:36:19.427Z,4.00
2022-10-06T14:38:47.513Z,3.83
2022-10-06T14:41:18.846Z,3.38
2022-10-06T14:43:48.991Z,3.50
2022-10-06T14:46:15.974Z,3.78
2022-10-06T14:48:42.709Z,3.80
2022-10-06T14:51:10.060Z,3.63
2022-10-06T14:53:39.375Z,3.95
2022-10-06T14:56:10.393Z,4.15
2022-10-06T14:58:38.960Z,4.75
2022-10-06T15:01:07.570Z,4.10
2022-10-06T15:03:37.385Z,4.00
2022-10-06T15:06:25.029Z,4.13
2022-10-06T15:08:57.125Z,3.97
2022-10-06T15:11:26.388Z,4.50
2022-10-06T15:13:55.365Z,5.18
2022-10-06T15:16:24.717Z,5.05
2022-10-06T15:18:52.255Z,5.85
2022-10-06T15:21:21.130Z,6.40
2022-10-06T15:23:50.928Z,6.37
2022-10-06T15:26:36.152Z,7.85
2022-10-06T15:29:05.756Z,7.10
2022-10-06T15:31:35.057Z,7.15
2022-10-06T15:34:03.985Z,6.63
2022-10-06T15:36:38.928Z,6.00
2022-10-06T15:39:08.005Z,5.78
2022-10-06T15:41:35.729Z,5.40
2022-10-06T15:44:03.526Z,6.03
2022-10-06T15:46:31.575Z,7.30
2022-10-06T15:49:03.282Z,6.05
2022-10-06T15:51:34.907Z,6.85
2022-10-06T15:54:01.545Z,6.75
2022-10-06T15:56:31.152Z,7.35
2022-10-06T15:58:58.982Z,7.20
2022-10-06T16:01:34.775Z,7.85
2022-10-06T16:04:10.796Z,7.43
2022-10-06T16:06:50.142Z,7.25
2022-10-06T16:09:20.447Z,7.00
2022-10-06T16:11:48.138Z,7.30
2022-10-06T16:14:15.788Z,6.82
2022-10-06T16:16:43.857Z,7.85
2022-10-06T16:19:11.012Z,8.35
2022-10-06T16:21:39.171Z,7.75
2022-10-06T16:24:06.037Z,7.80
2022-10-06T16:26:33.175Z,8.90
2022-10-06T16:29:00.348Z,10.07
2022-10-06T16:31:27.128Z,10.02
2022-10-06T16:33:53.902Z,9.27
2022-10-06T16:36:20.916Z,10.18
2022-10-06T16:38:52.773Z,9.98
2022-10-06T16:41:20.436Z,10.05
2022-10-06T16:43:48.515Z,10.35
2022-10-06T16:46:23.860Z,10.70
2022-10-06T16:48:53.213Z,10.80
2022-10-06T16:51:22.765Z,10.60
2022-10-06T16:53:52.330Z,10.57
2022-10-06T16:56:22.107Z,11.50
2022-10-06T17:01:17.565Z,13.05
2022-10-06T17:03:44.592Z,14.25
2022-10-06T17:06:12.666Z,11.68
2022-10-06T17:08:39.561Z,11.50
2022-10-06T17:11:21.090Z,12.23
2022-10-06T17:13:49.185Z,13.27
2022-10-06T17:16:18.789Z,13.55
2022-10-06T17:18:50.260Z,17.95
2022-10-06T17:21:43.326Z,16.50
2022-10-06T17:24:05.465Z,14.98
2022-10-06T17:26:37.243Z,15.57
2022-10-06T17:29:06.347Z,17.58
2022-10-06T17:31:38.581Z,18.88
2022-10-06T17:34:17.044Z,18.23
2022-10-06T17:36:48.987Z,23.60
2022-10-06T17:39:24.419Z,35.60
2022-10-06T17:41:52.808Z,28.85
2022-10-06T17:44:27.027Z,26.38
2022-10-06T17:46:56.252Z,24.27
2022-10-06T17:49:24.323Z,27.08
2022-10-06T17:51:52.571Z,28.83
2022-10-06T17:54:21.619Z,31.52
2022-10-06T17:56:50.393Z,29.90
2022-10-06T17:59:22.403Z,26.13
2022-10-06T18:01:51.390Z,26.30
2022-10-06T18:04:18.655Z,26.43
2022-10-06T18:06:46.934Z,23.55
2022-10-06T18:09:14.690Z,23.85
2022-10-06T18:11:43.887Z,21.77
2022-10-06T18:14:20.289Z,19.98
2022-10-06T18:16:59.914Z,20.17
2022-10-06T18:19:34.870Z,29.38
2022-10-06T18:22:10.605Z,25.98
2022-10-06T18:24:38.217Z,23.65
2022-10-06T18:27:06.441Z,22.60
2022-10-06T18:29:35.598Z,21.65
2022-10-06T18:37:36.468Z,22.67
2022-10-06T18:40:06.507Z,19.98
2022-10-06T18:42:33.668Z,21.23
2022-10-06T18:45:18.887Z,19.42
2022-10-06T18:48:04.194Z,16.80
2022-10-06T18:50:31.340Z,16.77
2022-10-06T18:52:57.961Z,16.95
2022-10-06T18:55:26.404Z,16.08
2022-10-06T18:57:53.147Z,17.33
2022-10-06T19:00:19.849Z,16.20
2022-10-06T19:02:49.381Z,22.35
2022-10-06T19:05:17.764Z,17.27
2022-10-06T19:07:44.998Z,14.65
2022-10-06T19:10:11.989Z,13.18
2022-10-06T19:12:39.033Z,13.63
2022-10-06T19:15:06.077Z,14.10
2022-10-06T19:17:32.682Z,14.10
2022-10-06T19:19:59.504Z,15.57
2022-10-06T19:22:26.162Z,15.50
2022-10-06T19:24:52.857Z,15.23
2022-10-06T19:27:28.929Z,13.73
2022-10-06T19:29:56.776Z,13.07
2022-10-06T19:32:26.944Z,14.00
2022-10-06T19:37:21.852Z,15.05
2022-10-06T19:39:50.246Z,14.13
2022-10-06T19:42:36.542Z,14.30
2022-10-06T19:45:04.407Z,14.88
2022-10-06T19:47:31.225Z,16.88
2022-10-06T19:50:02.149Z,16.95
2022-10-06T19:52:31.407Z,15.05
2022-10-06T19:54:58.465Z,14.32
2022-10-06T19:57:28.541Z,12.75
2022-10-06T19:59:55.215Z,14.43
2022-10-06T20:02:22.011Z,15.43
2022-10-06T20:04:48.731Z,14.57
2022-10-06T20:07:15.432Z,14.32
2022-10-06T20:09:42.097Z,13.52
2022-10-06T20:12:08.753Z,14.35
2022-10-06T20:14:36.327Z,13.20
2022-10-06T20:17:03.070Z,13.65
2022-10-06T20:19:29.747Z,13.88
2022-10-06T20:21:56.433Z,14.65
2022-10-06T20:24:24.899Z,14.23
2022-10-06T20:26:53.530Z,14.13
2022-10-06T20:29:22.975Z,14.73
2022-10-06T20:31:52.242Z,13.02
2022-10-06T20:34:21.457Z,14.43
2022-10-06T20:36:51.928Z,14.55
2022-10-06T20:39:40.765Z,14.43
2022-10-06T20:42:13.635Z,14.40
2022-10-06T20:44:42.312Z,14.75
2022-10-06T20:47:10.297Z,14.88
2022-10-06T20:49:37.011Z,15.38
2022-10-06T20:52:04.683Z,13.38
2022-10-06T20:54:34.903Z,14.07
2022-10-06T20:57:03.503Z,13.35
2022-10-06T20:59:30.614Z,13.80
2022-10-06T21:01:59.932Z,14.90
2022-10-06T21:04:30.342Z,15.27
2022-10-06T21:06:57.664Z,14.15
2022-10-06T21:09:24.883Z,14.70
2022-10-06T21:11:52.379Z,14.50
2022-10-06T21:14:19.695Z,12.52
2022-10-06T21:16:48.213Z,13.27
2022-10-06T21:19:16.946Z,13.25
2022-10-06T21:21:45.930Z,13.30
2022-10-06T21:24:12.894Z,13.47
2022-10-06T21:26:42.707Z,13.15
2022-10-06T21:31:37.360Z,12.80
2022-10-06T21:34:05.046Z,13.73
2022-10-06T21:36:32.150Z,14.13
2022-10-06T21:39:01.131Z,14.07
2022-10-06T21:41:30.490Z,14.07
2022-10-06T21:43:57.095Z,13.45
2022-10-06T21:46:28.790Z,12.95
2022-10-06T21:48:58.010Z,12.90
2022-10-06T21:51:26.495Z,12.52
2022-10-06T21:53:54.174Z,13.00
2022-10-06T21:56:22.177Z,12.82
2022-10-06T21:58:51.497Z,13.13
2022-10-06T22:01:20.019Z,12.70
2022-10-06T22:03:47.390Z,12.75
2022-10-06T22:06:18.904Z,13.73
2022-10-06T22:08:46.182Z,13.18
2022-10-06T22:11:21.831Z,14.60
2022-10-06T22:13:52.621Z,13.23
2022-10-06T22:16:21.925Z,13.80
2022-10-06T22:18:49.531Z,14.10
2022-10-06T22:21:24.911Z,13.43
2022-10-06T22:24:04.723Z,12.95
2022-10-06T22:26:33.678Z,12.88
2022-10-06T22:29:01.036Z,12.48
2022-10-06T22:31:28.298Z,12.23
2022-10-06T22:33:59.518Z,13.75
2022-10-06T22:36:27.683Z,12.98
2022-10-06T22:38:55.271Z,14.65
2022-10-06T22:41:22.660Z,15.57
2022-10-06T22:43:53.004Z,17.23
2022-10-06T22:46:19.641Z,17.35
2022-10-06T22:48:46.280Z,14.77
2022-10-06T22:51:13.099Z,15.40
2022-10-06T22:53:39.676Z,15.40
2022-10-06T22:56:06.440Z,14.27
2022-10-06T22:58:33.084Z,15.20
2022-10-06T23:01:09.418Z,15.40
2022-10-06T23:03:36.071Z,15.02
2022-10-06T23:06:02.715Z,15.32
2022-10-06T23:08:34.894Z,15.18
2022-10-06T23:11:10.950Z,15.48
2022-10-06T23:13:37.812Z,14.80
2022-10-06T23:16:08.053Z,15.13
2022-10-06T23:18:36.851Z,14.85
2022-10-06T23:21:05.555Z,15.52
2022-10-06T23:23:32.747Z,15.27
2022-10-06T23:26:08.127Z,14.88
2022-10-06T23:28:35.296Z,14.55
2022-10-06T23:31:04.760Z,15.73
2022-10-06T23:33:31.853Z,16.45
2022-10-06T23:36:03.262Z,15.48
2022-10-06T23:38:29.913Z,14.90
2022-10-06T23:40:56.580Z,14.80
2022-10-06T23:43:23.634Z,16.45
2022-10-06T23:45:50.448Z,14.88
2022-10-06T23:48:17.722Z,15.25
2022-10-06T23:51:02.141Z,16.17
2022-10-06T23:53:30.345Z,15.85
2022-10-06T23:55:57.118Z,16.70
2022-10-06T23:58:24.179Z,16.63
